sensor_id;sensor_type;location;lat;lon;timestamp;pressure;altitude;pressure_sealevel;temperature;humidity
67052;BME280;53957;47.222;18.670;2022-08-20T05:59:11;99782.41;;;20.43;100.00
67052;BME280;53957;47.222;18.670;2022-08-20T06:02:16;99799.47;;;20.43;100.00
67052;BME280;53957;47.222;18.670;2022-08-20T06:05:37;99809.81;;;20.38;100.00
67052;BME280;53957;47.222;18.670;2022-08-20T06:08:40;99804.63;;;20.29;100.00
67052;BME280;53957;47.222;18.670;2022-08-20T06:11:43;99785.72;;;20.33;100.00
67052;BME280;53957;47.222;18.670;2022-08-20T06:14:46;99752.25;;;20.21;100.00
67052;BME280;53957;47.222;18.670;2022-08-20T06:17:49;99732.03;;;20.15;100.00
67052;BME280;53957;47.222;18.670;2022-08-20T06:20:59;99730.16;;;20.19;100.00
67052;BME280;53957;47.222;18.670;2022-08-20T06:24:03;99736.41;;;20.23;100.00
67052;BME280;53957;47.222;18.670;2022-08-20T06:27:06;99736.53;;;20.31;100.00
67052;BME280;53957;47.222;18.670;2022-08-20T06:30:12;99731.94;;;20.31;100.00
67052;BME280;53957;47.222;18.670;2022-08-20T06:33:15;99719.53;;;20.30;100.00
67052;BME280;53957;47.222;18.670;2022-08-20T06:36:18;99719.59;;;20.34;100.00
67052;BME280;53957;47.222;18.670;2022-08-20T06:39:22;99724.50;;;20.28;100.00
67052;BME280;53957;47.222;18.670;2022-08-20T06:42:25;99727.81;;;20.18;100.00
67052;BME280;53957;47.222;18.670;2022-08-20T06:45:30;99714.25;;;19.94;100.00
67052;BME280;53957;47.222;18.670;2022-08-20T06:48:34;99724.94;;;19.87;100.00
67052;BME280;53957;47.222;18.670;2022-08-20T06:51:37;99744.09;;;19.98;100.00
67052;BME280;53957;47.222;18.670;2022-08-20T06:54:44;99754.12;;;19.98;100.00
67052;BME280;53957;47.222;18.670;2022-08-20T06:57:51;99757.63;;;19.98;100.00
67052;BME280;53957;47.222;18.670;2022-08-20T07:00:57;99814.03;;;19.60;100.00
67052;BME280;53957;47.222;18.670;2022-08-20T07:04:11;99855.28;;;19.73;100.00
67052;BME280;53957;47.222;18.670;2022-08-20T07:07:15;99870.72;;;19.53;100.00
67052;BME280;53957;47.222;18.670;2022-08-20T07:10:19;99878.63;;;19.62;100.00
67052;BME280;53957;47.222;18.670;2022-08-20T07:13:23;99884.13;;;19.66;100.00
67052;BME280;53957;47.222;18.670;2022-08-20T07:16:26;99885.84;;;19.58;100.00
67052;BME280;53957;47.222;18.670;2022-08-20T07:19:30;99910.22;;;19.42;100.00
67052;BME280;53957;47.222;18.670;2022-08-20T07:22:33;99927.50;;;19.53;100.00
67052;BME280;53957;47.222;18.670;2022-08-20T07:25:40;99932.28;;;19.44;100.00
67052;BME280;53957;47.222;18.670;2022-08-20T07:28:44;99959.78;;;19.46;100.00
67052;BME280;53957;47.222;18.670;2022-08-20T07:31:47;99977.91;;;19.45;100.00
67052;BME280;53957;47.222;18.670;2022-08-20T07:35:14;99966.06;;;19.50;100.00
67052;BME280;53957;47.222;18.670;2022-08-20T07:38:22;99952.72;;;19.41;100.00
67052;BME280;53957;47.222;18.670;2022-08-20T07:41:28;99951.66;;;19.30;100.00
67052;BME280;53957;47.222;18.670;2022-08-20T07:44:30;99930.13;;;19.34;100.00
67052;BME280;53957;47.222;18.670;2022-08-20T07:47:33;99905.44;;;19.35;100.00
67052;BME280;53957;47.222;18.670;2022-08-20T07:50:37;99904.63;;;19.35;100.00
67052;BME280;53957;47.222;18.670;2022-08-20T07:56:44;99869.72;;;19.97;100.00
67052;BME280;53957;47.222;18.670;2022-08-20T07:59:47;99869.72;;;19.97;100.00
67052;BME280;53957;47.222;18.670;2022-08-20T08:02:51;99853.69;;;19.37;100.00
67052;BME280;53957;47.222;18.670;2022-08-20T08:05:54;99849.25;;;19.28;100.00
67052;BME280;53957;47.222;18.670;2022-08-20T08:09:03;99838.09;;;19.30;100.00
67052;BME280;53957;47.222;18.670;2022-08-20T08:12:07;99821.19;;;19.17;100.00
67052;BME280;53957;47.222;18.670;2022-08-20T08:15:15;99814.28;;;19.20;100.00
67052;BME280;53957;47.222;18.670;2022-08-20T08:18:22;99805.75;;;19.18;100.00
67052;BME280;53957;47.222;18.670;2022-08-20T08:21:31;99819.63;;;19.16;100.00
67052;BME280;53957;47.222;18.670;2022-08-20T08:24:34;99812.63;;;19.31;100.00
67052;BME280;53957;47.222;18.670;2022-08-20T08:27:38;99802.00;;;19.06;100.00
67052;BME280;53957;47.222;18.670;2022-08-20T08:30:44;99792.69;;;19.04;100.00
67052;BME280;53957;47.222;18.670;2022-08-20T08:33:48;99801.06;;;18.98;100.00
67052;BME280;53957;47.222;18.670;2022-08-20T08:36:51;99800.00;;;19.03;100.00
67052;BME280;53957;47.222;18.670;2022-08-20T08:39:54;99806.91;;;19.01;100.00
67052;BME280;53957;47.222;18.670;2022-08-20T08:43:00;99811.88;;;18.98;100.00
67052;BME280;53957;47.222;18.670;2022-08-20T08:46:07;99802.53;;;19.12;100.00
67052;BME280;53957;47.222;18.670;2022-08-20T08:49:15;99803.56;;;19.07;100.00
67052;BME280;53957;47.222;18.670;2022-08-20T08:52:23;99808.03;;;19.15;100.00
67052;BME280;53957;47.222;18.670;2022-08-20T08:55:28;99813.53;;;19.19;100.00
67052;BME280;53957;47.222;18.670;2022-08-20T08:58:34;99810.63;;;19.12;100.00
67052;BME280;53957;47.222;18.670;2022-08-20T09:01:48;99804.69;;;19.22;100.00
67052;BME280;53957;47.222;18.670;2022-08-20T09:05:00;99811.25;;;19.21;100.00
67052;BME280;53957;47.222;18.670;2022-08-20T09:08:06;99802.25;;;19.17;100.00
67052;BME280;53957;47.222;18.670;2022-08-20T09:11:19;99802.34;;;19.21;100.00
67052;BME280;53957;47.222;18.670;2022-08-20T09:14:23;99787.53;;;19.14;100.00
67052;BME280;53957;47.222;18.670;2022-08-20T09:17:29;99787.87;;;19.13;100.00
67052;BME280;53957;47.222;18.670;2022-08-20T09:20:32;99785.00;;;19.06;100.00
67052;BME280;53957;47.222;18.670;2022-08-20T09:23:36;99787.28;;;19.04;100.00
67052;BME280;53957;47.222;18.670;2022-08-20T09:26:39;99796.69;;;19.10;100.00
67052;BME280;53957;47.222;18.670;2022-08-20T09:29:42;99809.25;;;19.18;100.00
67052;BME280;53957;47.222;18.670;2022-08-20T09:32:47;99820.31;;;19.13;100.00
67052;BME280;53957;47.222;18.670;2022-08-20T09:35:50;99823.69;;;19.26;100.00
67052;BME280;53957;47.222;18.670;2022-08-20T09:38:53;99827.72;;;19.16;100.00
67052;BME280;53957;47.222;18.670;2022-08-20T09:42:09;99818.31;;;19.10;100.00
67052;BME280;53957;47.222;18.670;2022-08-20T09:45:13;99809.16;;;18.98;100.00
67052;BME280;53957;47.222;18.670;2022-08-20T09:48:16;99806.47;;;18.98;100.00
67052;BME280;53957;47.222;18.670;2022-08-20T09:51:19;99792.53;;;18.96;100.00
67052;BME280;53957;47.222;18.670;2022-08-20T09:54:23;99790.25;;;18.98;100.00
67052;BME280;53957;47.222;18.670;2022-08-20T09:57:31;99781.28;;;18.94;100.00
67052;BME280;53957;47.222;18.670;2022-08-20T10:00:35;99787.03;;;19.09;100.00
67052;BME280;53957;47.222;18.670;2022-08-20T10:03:38;99790.72;;;19.36;100.00
67052;BME280;53957;47.222;18.670;2022-08-20T10:06:44;99803.53;;;19.75;100.00
67052;BME280;53957;47.222;18.670;2022-08-20T10:09:47;99802.00;;;19.93;100.00
67052;BME280;53957;47.222;18.670;2022-08-20T10:12:50;99806.78;;;20.43;100.00
67052;BME280;53957;47.222;18.670;2022-08-20T10:15:57;99800.75;;;20.73;100.00
67052;BME280;53957;47.222;18.670;2022-08-20T10:18:59;99815.41;;;21.18;100.00
67052;BME280;53957;47.222;18.670;2022-08-20T10:22:03;99823.78;;;21.60;100.00
67052;BME280;53957;47.222;18.670;2022-08-20T10:25:06;99820.25;;;21.86;100.00
67052;BME280;53957;47.222;18.670;2022-08-20T10:28:10;99815.63;;;21.90;100.00
67052;BME280;53957;47.222;18.670;2022-08-20T10:31:12;99809.06;;;21.91;100.00
67052;BME280;53957;47.222;18.670;2022-08-20T10:34:16;99801.63;;;21.84;100.00
67052;BME280;53957;47.222;18.670;2022-08-20T10:37:21;99807.12;;;21.92;100.00
67052;BME280;53957;47.222;18.670;2022-08-20T10:40:25;99808.91;;;22.11;100.00
67052;BME280;53957;47.222;18.670;2022-08-20T10:43:28;99813.03;;;22.35;100.00
67052;BME280;53957;47.222;18.670;2022-08-20T10:46:31;99828.28;;;22.43;100.00
67052;BME280;53957;47.222;18.670;2022-08-20T10:49:34;99833.56;;;22.66;100.00
67052;BME280;53957;47.222;18.670;2022-08-20T10:52:37;99840.34;;;22.87;100.00
67052;BME280;53957;47.222;18.670;2022-08-20T10:55:40;99833.50;;;23.60;100.00
67052;BME280;53957;47.222;18.670;2022-08-20T10:58:43;99838.28;;;23.85;100.00
67052;BME280;53957;47.222;18.670;2022-08-20T11:01:46;99845.66;;;23.88;97.38
67052;BME280;53957;47.222;18.670;2022-08-20T11:04:49;99833.37;;;23.42;100.00
67052;BME280;53957;47.222;18.670;2022-08-20T11:07:52;99841.75;;;23.74;98.01
67052;BME280;53957;47.222;18.670;2022-08-20T11:10:58;99840.06;;;24.58;100.00
67052;BME280;53957;47.222;18.670;2022-08-20T11:14:01;99834.13;;;24.16;93.98
67052;BME280;53957;47.222;18.670;2022-08-20T11:17:05;99848.00;;;23.86;100.00
67052;BME280;53957;47.222;18.670;2022-08-20T11:20:10;99843.19;;;23.57;99.51
67052;BME280;53957;47.222;18.670;2022-08-20T11:23:23;99849.09;;;23.70;98.22
67052;BME280;53957;47.222;18.670;2022-08-20T11:26:26;99837.94;;;23.27;100.00
67052;BME280;53957;47.222;18.670;2022-08-20T11:29:29;99842.72;;;22.92;100.00
67052;BME280;53957;47.222;18.670;2022-08-20T11:32:35;99840.16;;;23.10;100.00
67052;BME280;53957;47.222;18.670;2022-08-20T11:35:38;99837.75;;;23.02;100.00
67052;BME280;53957;47.222;18.670;2022-08-20T11:38:51;99826.69;;;22.80;100.00
67052;BME280;53957;47.222;18.670;2022-08-20T11:41:54;99828.94;;;22.74;100.00
67052;BME280;53957;47.222;18.670;2022-08-20T11:44:57;99829.38;;;22.76;100.00
67052;BME280;53957;47.222;18.670;2022-08-20T11:48:00;99835.63;;;22.80;100.00
67052;BME280;53957;47.222;18.670;2022-08-20T11:51:03;99844.47;;;22.70;100.00
67052;BME280;53957;47.222;18.670;2022-08-20T11:54:07;99834.34;;;22.67;100.00
67052;BME280;53957;47.222;18.670;2022-08-20T11:57:10;99832.84;;;22.73;100.00
67052;BME280;53957;47.222;18.670;2022-08-20T12:00:17;99833.41;;;22.48;100.00
67052;BME280;53957;47.222;18.670;2022-08-20T12:03:21;99815.19;;;22.18;100.00
67052;BME280;53957;47.222;18.670;2022-08-20T12:06:24;99820.13;;;22.43;100.00
67052;BME280;53957;47.222;18.670;2022-08-20T12:09:27;99809.94;;;22.36;100.00
67052;BME280;53957;47.222;18.670;2022-08-20T12:12:31;99813.22;;;22.53;100.00
67052;BME280;53957;47.222;18.670;2022-08-20T12:15:35;99803.53;;;22.52;100.00
67052;BME280;53957;47.222;18.670;2022-08-20T12:18:39;99803.16;;;22.54;100.00
67052;BME280;53957;47.222;18.670;2022-08-20T12:21:42;99798.31;;;22.36;100.00
67052;BME280;53957;47.222;18.670;2022-08-20T12:24:45;99793.94;;;22.28;100.00
67052;BME280;53957;47.222;18.670;2022-08-20T12:27:48;99793.19;;;22.31;100.00
67052;BME280;53957;47.222;18.670;2022-08-20T12:30:51;99781.97;;;22.32;100.00
67052;BME280;53957;47.222;18.670;2022-08-20T12:33:54;99776.78;;;22.58;100.00
67052;BME280;53957;47.222;18.670;2022-08-20T12:37:04;99782.78;;;22.36;100.00
67052;BME280;53957;47.222;18.670;2022-08-20T12:40:13;99786.66;;;22.35;100.00
67052;BME280;53957;47.222;18.670;2022-08-20T12:43:16;99778.97;;;22.41;100.00
67052;BME280;53957;47.222;18.670;2022-08-20T12:46:25;99781.00;;;22.51;100.00
67052;BME280;53957;47.222;18.670;2022-08-20T12:49:28;99772.19;;;22.65;100.00
67052;BME280;53957;47.222;18.670;2022-08-20T12:52:32;99763.97;;;22.55;100.00
67052;BME280;53957;47.222;18.670;2022-08-20T12:55:35;99760.50;;;22.61;100.00
67052;BME280;53957;47.222;18.670;2022-08-20T12:58:38;99753.78;;;22.93;100.00
67052;BME280;53957;47.222;18.670;2022-08-20T13:01:41;99763.44;;;22.87;100.00
67052;BME280;53957;47.222;18.670;2022-08-20T13:04:44;99756.44;;;22.86;100.00
67052;BME280;53957;47.222;18.670;2022-08-20T13:07:48;99757.81;;;22.65;100.00
67052;BME280;53957;47.222;18.670;2022-08-20T13:10:51;99747.47;;;22.85;100.00
67052;BME280;53957;47.222;18.670;2022-08-20T13:13:54;99763.97;;;23.10;100.00
67052;BME280;53957;47.222;18.670;2022-08-20T13:16:58;99747.66;;;23.10;100.00
67052;BME280;53957;47.222;18.670;2022-08-20T13:20:05;99741.22;;;22.77;100.00
67052;BME280;53957;47.222;18.670;2022-08-20T13:23:09;99735.13;;;22.95;100.00
67052;BME280;53957;47.222;18.670;2022-08-20T13:26:11;99740.19;;;23.00;100.00
67052;BME280;53957;47.222;18.670;2022-08-20T13:29:16;99740.97;;;22.97;100.00
67052;BME280;53957;47.222;18.670;2022-08-20T13:32:20;99744.91;;;23.03;100.00
67052;BME280;53957;47.222;18.670;2022-08-20T13:35:43;99732.03;;;22.96;100.00
67052;BME280;53957;47.222;18.670;2022-08-20T13:38:46;99721.78;;;22.75;100.00
67052;BME280;53957;47.222;18.670;2022-08-20T13:41:50;99723.41;;;22.83;100.00
67052;BME280;53957;47.222;18.670;2022-08-20T13:44:53;99722.97;;;22.78;100.00
67052;BME280;53957;47.222;18.670;2022-08-20T13:48:07;99723.81;;;22.86;100.00
67052;BME280;53957;47.222;18.670;2022-08-20T13:51:17;99728.56;;;22.99;100.00
67052;BME280;53957;47.222;18.670;2022-08-20T13:54:25;99728.69;;;23.18;100.00
67052;BME280;53957;47.222;18.670;2022-08-20T13:57:33;99734.06;;;23.10;98.83
67052;BME280;53957;47.222;18.670;2022-08-20T14:00:36;99738.41;;;23.22;99.92
67052;BME280;53957;47.222;18.670;2022-08-20T14:03:42;99740.03;;;23.34;99.76
67052;BME280;53957;47.222;18.670;2022-08-20T14:06:47;99743.25;;;23.54;97.71
67052;BME280;53957;47.222;18.670;2022-08-20T14:09:57;99735.00;;;23.36;96.56
67052;BME280;53957;47.222;18.670;2022-08-20T14:13:00;99728.81;;;23.46;100.00
67052;BME280;53957;47.222;18.670;2022-08-20T14:16:05;99726.06;;;23.39;96.32
67052;BME280;53957;47.222;18.670;2022-08-20T14:19:22;99730.78;;;23.50;97.30
67052;BME280;53957;47.222;18.670;2022-08-20T14:22:28;99719.56;;;23.66;93.11
67052;BME280;53957;47.222;18.670;2022-08-20T14:25:32;99720.88;;;24.04;94.39
67052;BME280;53957;47.222;18.670;2022-08-20T14:28:37;99708.34;;;23.85;97.23
67052;BME280;53957;47.222;18.670;2022-08-20T14:32:00;99702.91;;;23.78;97.83
67052;BME280;53957;47.222;18.670;2022-08-20T14:35:10;99704.53;;;24.11;93.32
67052;BME280;53957;47.222;18.670;2022-08-20T14:38:23;99716.97;;;23.98;97.23
67052;BME280;53957;47.222;18.670;2022-08-20T14:41:27;99718.50;;;24.06;89.62
67052;BME280;53957;47.222;18.670;2022-08-20T14:44:30;99718.53;;;23.99;94.06
67052;BME280;53957;47.222;18.670;2022-08-20T14:47:36;99722.78;;;23.93;97.65
67052;BME280;53957;47.222;18.670;2022-08-20T14:50:39;99720.47;;;24.02;92.42
67052;BME280;53957;47.222;18.670;2022-08-20T14:53:43;99713.44;;;23.94;90.09
67052;BME280;53957;47.222;18.670;2022-08-20T14:56:47;99716.50;;;23.89;90.68
67052;BME280;53957;47.222;18.670;2022-08-20T15:00:06;99722.72;;;23.75;92.33
67052;BME280;53957;47.222;18.670;2022-08-20T15:03:30;99713.09;;;23.99;86.82
67052;BME280;53957;47.222;18.670;2022-08-20T15:06:37;99709.16;;;24.00;89.75
67052;BME280;53957;47.222;18.670;2022-08-20T15:09:42;99711.84;;;23.86;88.69
67052;BME280;53957;47.222;18.670;2022-08-20T15:12:46;99709.09;;;23.71;88.62
67052;BME280;53957;47.222;18.670;2022-08-20T15:15:49;99699.75;;;23.69;89.94
67052;BME280;53957;47.222;18.670;2022-08-20T15:18:54;99694.66;;;23.56;92.50
67052;BME280;53957;47.222;18.670;2022-08-20T15:22:04;99704.75;;;23.48;91.11
67052;BME280;53957;47.222;18.670;2022-08-20T15:25:12;99715.97;;;23.43;91.03
67052;BME280;53957;47.222;18.670;2022-08-20T15:28:17;99722.94;;;23.37;91.69
67052;BME280;53957;47.222;18.670;2022-08-20T15:31:28;99717.16;;;23.42;91.94
67052;BME280;53957;47.222;18.670;2022-08-20T15:34:38;99722.38;;;23.06;93.21
67052;BME280;53957;47.222;18.670;2022-08-20T15:37:48;99719.69;;;23.13;91.57
67052;BME280;53957;47.222;18.670;2022-08-20T15:40:51;99723.94;;;23.11;94.33
67052;BME280;53957;47.222;18.670;2022-08-20T15:43:55;99722.09;;;23.22;94.97
67052;BME280;53957;47.222;18.670;2022-08-20T15:47:26;99733.78;;;23.23;97.72
67052;BME280;53957;47.222;18.670;2022-08-20T15:50:54;99742.22;;;23.10;94.68
67052;BME280;53957;47.222;18.670;2022-08-20T15:54:22;99727.78;;;22.99;96.39
67052;BME280;53957;47.222;18.670;2022-08-20T15:57:46;99736.78;;;23.10;94.08
67052;BME280;53957;47.222;18.670;2022-08-20T16:04:27;99761.94;;;22.96;94.11
67052;BME280;53957;47.222;18.670;2022-08-20T16:14:44;99768.50;;;22.88;97.35
67052;BME280;53957;47.222;18.670;2022-08-20T16:18:02;99778.53;;;22.84;97.51
67052;BME280;53957;47.222;18.670;2022-08-20T16:21:11;99774.59;;;22.71;94.96
67052;BME280;53957;47.222;18.670;2022-08-20T16:24:35;99778.34;;;22.59;98.63
67052;BME280;53957;47.222;18.670;2022-08-20T16:28:04;99783.69;;;22.48;100.00
67052;BME280;53957;47.222;18.670;2022-08-20T16:31:14;99774.31;;;22.42;100.00
67052;BME280;53957;47.222;18.670;2022-08-20T16:34:47;99765.66;;;22.32;100.00
67052;BME280;53957;47.222;18.670;2022-08-20T16:38:34;99777.16;;;22.18;100.00
67052;BME280;53957;47.222;18.670;2022-08-20T16:44:41;99784.16;;;22.19;100.00
67052;BME280;53957;47.222;18.670;2022-08-20T16:47:47;99780.56;;;22.08;100.00
67052;BME280;53957;47.222;18.670;2022-08-20T16:51:02;99786.44;;;22.14;100.00
67052;BME280;53957;47.222;18.670;2022-08-20T16:54:08;99768.03;;;22.00;100.00
67052;BME280;53957;47.222;18.670;2022-08-20T16:57:12;99773.72;;;21.87;100.00
67052;BME280;53957;47.222;18.670;2022-08-20T17:00:27;99771.34;;;21.82;100.00
67052;BME280;53957;47.222;18.670;2022-08-20T17:03:48;99781.38;;;21.78;100.00
67052;BME280;53957;47.222;18.670;2022-08-20T17:06:51;99786.66;;;21.67;100.00
67052;BME280;53957;47.222;18.670;2022-08-20T17:31:50;99766.59;;;21.18;100.00
67052;BME280;53957;47.222;18.670;2022-08-20T17:34:57;99754.41;;;21.05;100.00
67052;BME280;53957;47.222;18.670;2022-08-20T17:38:01;99756.72;;;21.03;100.00
67052;BME280;53957;47.222;18.670;2022-08-20T17:41:11;99765.00;;;20.87;100.00
67052;BME280;53957;47.222;18.670;2022-08-20T17:44:28;99766.50;;;20.84;100.00
67052;BME280;53957;47.222;18.670;2022-08-20T17:47:35;99762.53;;;20.78;100.00
67052;BME280;53957;47.222;18.670;2022-08-20T17:50:41;99753.31;;;20.59;100.00
67052;BME280;53957;47.222;18.670;2022-08-20T17:53:49;99757.84;;;20.55;100.00
67052;BME280;53957;47.222;18.670;2022-08-20T17:56:58;99744.50;;;20.43;100.00
67052;BME280;53957;47.222;18.670;2022-08-20T18:00:07;99741.19;;;20.30;100.00
67052;BME280;53957;47.222;18.670;2022-08-20T18:03:23;99744.19;;;20.25;100.00
67052;BME280;53957;47.222;18.670;2022-08-20T18:10:17;99754.84;;;20.14;100.00
67052;BME280;53957;47.222;18.670;2022-08-20T18:21:24;99755.34;;;20.00;100.00
67052;BME280;53957;47.222;18.670;2022-08-20T18:24:08;99761.47;;;19.97;100.00
67052;BME280;53957;47.222;18.670;2022-08-20T18:27:16;99760.81;;;20.04;100.00
67052;BME280;53957;47.222;18.670;2022-08-20T18:30:23;99752.22;;;19.98;100.00
67052;BME280;53957;47.222;18.670;2022-08-20T18:33:36;99757.47;;;19.91;100.00
67052;BME280;53957;47.222;18.670;2022-08-20T18:36:40;99758.91;;;19.85;100.00
67052;BME280;53957;47.222;18.670;2022-08-20T18:39:45;99756.03;;;19.77;100.00
67052;BME280;53957;47.222;18.670;2022-08-20T18:42:50;99749.69;;;19.70;100.00
67052;BME280;53957;47.222;18.670;2022-08-20T18:45:53;99750.41;;;19.67;100.00
67052;BME280;53957;47.222;18.670;2022-08-20T18:48:59;99738.28;;;19.60;100.00
67052;BME280;53957;47.222;18.670;2022-08-20T18:52:22;99736.16;;;19.50;100.00
67052;BME280;53957;47.222;18.670;2022-08-20T18:55:37;99746.38;;;19.41;100.00
67052;BME280;53957;47.222;18.670;2022-08-20T18:59:01;99750.16;;;19.36;100.00
67052;BME280;53957;47.222;18.670;2022-08-20T19:02:16;99757.16;;;19.37;100.00
67052;BME280;53957;47.222;18.670;2022-08-20T19:05:30;99758.19;;;19.33;100.00
67052;BME280;53957;47.222;18.670;2022-08-20T19:09:02;99761.75;;;19.37;100.00
67052;BME280;53957;47.222;18.670;2022-08-20T19:15:40;99761.69;;;19.33;100.00
67052;BME280;53957;47.222;18.670;2022-08-20T19:18:50;99765.59;;;19.36;100.00
67052;BME280;53957;47.222;18.670;2022-08-20T19:21:54;99767.13;;;19.17;100.00
67052;BME280;53957;47.222;18.670;2022-08-20T19:24:57;99760.50;;;19.14;100.00
67052;BME280;53957;47.222;18.670;2022-08-20T19:28:20;99758.50;;;19.11;100.00
67052;BME280;53957;47.222;18.670;2022-08-20T19:31:29;99752.47;;;19.18;100.00
67052;BME280;53957;47.222;18.670;2022-08-20T19:34:33;99749.94;;;19.25;100.00
67052;BME280;53957;47.222;18.670;2022-08-20T19:37:43;99742.09;;;19.20;100.00
67052;BME280;53957;47.222;18.670;2022-08-20T19:40:53;99735.97;;;19.23;100.00
67052;BME280;53957;47.222;18.670;2022-08-20T19:55:21;99737.00;;;19.54;100.00
67052;BME280;53957;47.222;18.670;2022-08-20T19:58:26;99737.38;;;19.53;100.00
67052;BME280;53957;47.222;18.670;2022-08-20T20:01:30;99731.88;;;19.49;100.00
67052;BME280;53957;47.222;18.670;2022-08-20T20:04:40;99731.19;;;19.52;100.00
67052;BME280;53957;47.222;18.670;2022-08-20T20:08:02;99735.09;;;19.55;100.00
67052;BME280;53957;47.222;18.670;2022-08-20T20:11:06;99733.44;;;19.50;100.00
67052;BME280;53957;47.222;18.670;2022-08-20T20:14:11;99741.44;;;19.62;100.00
67052;BME280;53957;47.222;18.670;2022-08-20T20:17:19;99744.88;;;19.59;100.00
67052;BME280;53957;47.222;18.670;2022-08-20T20:20:29;99746.00;;;19.58;100.00
67052;BME280;53957;47.222;18.670;2022-08-20T20:23:32;99752.25;;;19.62;100.00
67052;BME280;53957;47.222;18.670;2022-08-20T20:26:49;99747.13;;;19.57;100.00
67052;BME280;53957;47.222;18.670;2022-08-20T20:30:01;99754.25;;;19.66;100.00
67052;BME280;53957;47.222;18.670;2022-08-20T20:33:33;99751.59;;;19.69;100.00
67052;BME280;53957;47.222;18.670;2022-08-20T20:36:41;99762.94;;;19.75;100.00
67052;BME280;53957;47.222;18.670;2022-08-20T20:39:44;99755.03;;;19.66;100.00
67052;BME280;53957;47.222;18.670;2022-08-20T20:43:06;99755.59;;;19.56;100.00
67052;BME280;53957;47.222;18.670;2022-08-20T20:46:20;99757.37;;;19.68;100.00
67052;BME280;53957;47.222;18.670;2022-08-20T20:49:45;99751.13;;;19.63;100.00
67052;BME280;53957;47.222;18.670;2022-08-20T20:52:50;99756.03;;;19.58;100.00
67052;BME280;53957;47.222;18.670;2022-08-20T20:55:56;99762.00;;;19.67;100.00
67052;BME280;53957;47.222;18.670;2022-08-20T20:59:04;99766.69;;;19.51;100.00
67052;BME280;53957;47.222;18.670;2022-08-20T21:02:09;99762.69;;;19.44;100.00
67052;BME280;53957;47.222;18.670;2022-08-20T21:05:14;99766.88;;;19.42;100.00
67052;BME280;53957;47.222;18.670;2022-08-20T21:08:17;99761.75;;;19.37;100.00
67052;BME280;53957;47.222;18.670;2022-08-20T21:11:20;99764.47;;;19.37;100.00
67052;BME280;53957;47.222;18.670;2022-08-20T21:14:23;99760.47;;;19.30;100.00
67052;BME280;53957;47.222;18.670;2022-08-20T21:17:26;99758.13;;;19.29;100.00
67052;BME280;53957;47.222;18.670;2022-08-20T21:20:30;99760.66;;;19.22;100.00
67052;BME280;53957;47.222;18.670;2022-08-20T21:23:34;99755.38;;;19.09;100.00
67052;BME280;53957;47.222;18.670;2022-08-20T21:26:43;99751.91;;;19.09;100.00
67052;BME280;53957;47.222;18.670;2022-08-20T21:29:47;99748.66;;;19.03;100.00
67052;BME280;53957;47.222;18.670;2022-08-20T21:32:50;99754.06;;;19.03;100.00
67052;BME280;53957;47.222;18.670;2022-08-20T21:35:53;99757.13;;;19.02;100.00
67052;BME280;53957;47.222;18.670;2022-08-20T21:38:58;99743.19;;;18.99;100.00
67052;BME280;53957;47.222;18.670;2022-08-20T21:42:03;99739.78;;;19.03;100.00
67052;BME280;53957;47.222;18.670;2022-08-20T21:45:27;99740.03;;;18.97;100.00
67052;BME280;53957;47.222;18.670;2022-08-20T21:48:31;99736.84;;;18.92;100.00
67052;BME280;53957;47.222;18.670;2022-08-20T21:51:34;99734.28;;;18.99;100.00
67052;BME280;53957;47.222;18.670;2022-08-20T21:54:37;99728.25;;;18.90;100.00
67052;BME280;53957;47.222;18.670;2022-08-20T21:57:40;99727.47;;;18.89;100.00
67052;BME280;53957;47.222;18.670;2022-08-20T22:03:54;99732.72;;;18.82;100.00
67052;BME280;53957;47.222;18.670;2022-08-20T22:06:57;99737.00;;;18.83;100.00
67052;BME280;53957;47.222;18.670;2022-08-20T22:10:00;99735.34;;;18.94;100.00
67052;BME280;53957;47.222;18.670;2022-08-20T22:13:03;99742.13;;;18.88;100.00
67052;BME280;53957;47.222;18.670;2022-08-20T22:16:08;99736.09;;;18.79;100.00
67052;BME280;53957;47.222;18.670;2022-08-20T22:19:12;99745.19;;;18.71;100.00
67052;BME280;53957;47.222;18.670;2022-08-20T22:22:19;99742.72;;;18.81;100.00
67052;BME280;53957;47.222;18.670;2022-08-20T22:25:22;99747.44;;;18.85;100.00
67052;BME280;53957;47.222;18.670;2022-08-20T22:28:25;99753.44;;;18.78;100.00
67052;BME280;53957;47.222;18.670;2022-08-20T22:31:30;99762.53;;;18.70;100.00
67052;BME280;53957;47.222;18.670;2022-08-20T22:34:34;99764.50;;;18.73;100.00
67052;BME280;53957;47.222;18.670;2022-08-20T22:37:38;99761.91;;;18.60;100.00
67052;BME280;53957;47.222;18.670;2022-08-20T22:40:42;99758.94;;;18.65;100.00
67052;BME280;53957;47.222;18.670;2022-08-20T22:43:45;99748.75;;;18.59;100.00
67052;BME280;53957;47.222;18.670;2022-08-20T22:47:03;99752.22;;;18.59;100.00
67052;BME280;53957;47.222;18.670;2022-08-20T22:50:08;99755.72;;;18.60;100.00
67052;BME280;53957;47.222;18.670;2022-08-20T22:53:13;99752.84;;;18.53;100.00
67052;BME280;53957;47.222;18.670;2022-08-20T22:56:17;99755.09;;;18.50;100.00
67052;BME280;53957;47.222;18.670;2022-08-20T22:59:23;99749.78;;;18.54;100.00
67052;BME280;53957;47.222;18.670;2022-08-20T23:02:26;99747.78;;;18.51;100.00
67052;BME280;53957;47.222;18.670;2022-08-20T23:05:32;99736.97;;;18.35;100.00
67052;BME280;53957;47.222;18.670;2022-08-20T23:08:37;99737.84;;;18.39;100.00
67052;BME280;53957;47.222;18.670;2022-08-20T23:11:40;99739.50;;;18.44;100.00